createdAt,value
2022-11-15T00:01:33.686Z,95598.38
2022-11-15T00:04:19.315Z,95586.56
2022-11-15T00:07:05.433Z,95592.84
2022-11-15T00:09:50.754Z,95592.50
2022-11-15T00:12:36.359Z,95588.56
2022-11-15T00:15:21.812Z,95574.44
2022-11-15T00:18:08.406Z,95593.03
2022-11-15T00:20:54.153Z,95593.41
2022-11-15T00:23:39.612Z,95589.34
2022-11-15T00:26:25.132Z,95586.06
2022-11-15T00:29:10.710Z,95592.22
2022-11-15T00:31:56.177Z,95599.50
2022-11-15T00:34:41.831Z,95596.97
2022-11-15T00:37:27.325Z,95617.81
2022-11-15T00:40:14.076Z,95612.16
2022-11-15T00:43:00.181Z,95590.28
2022-11-15T00:45:45.803Z,95591.47
2022-11-15T00:48:31.404Z,95602.53
2022-11-15T00:51:17.260Z,95592.59
2022-11-15T00:54:03.121Z,95600.34
2022-11-15T00:56:48.601Z,95602.53
2022-11-15T00:59:34.151Z,95599.47
2022-11-15T01:02:19.734Z,95593.88
2022-11-15T01:05:06.230Z,95600.84
2022-11-15T01:07:56.327Z,95602.66
2022-11-15T01:10:42.263Z,95617.53
2022-11-15T01:13:31.377Z,95604.84
2022-11-15T01:16:19.755Z,95606.16
2022-11-15T01:19:05.273Z,95605.25
2022-11-15T01:21:51.503Z,95587.00
2022-11-15T01:24:37.452Z,95596.94
2022-11-15T01:27:23.198Z,95597.53
2022-11-15T01:30:09.563Z,95574.34
2022-11-15T01:32:55.347Z,95590.34
2022-11-15T01:35:41.406Z,95590.13
2022-11-15T01:38:27.016Z,95581.44
2022-11-15T01:41:20.885Z,95604.00
2022-11-15T01:44:42.682Z,95574.19
2022-11-15T01:47:50.159Z,95584.56
2022-11-15T01:50:35.687Z,95580.59
2022-11-15T01:53:24.638Z,95576.31
2022-11-15T01:56:17.646Z,95554.94
2022-11-15T01:59:07.467Z,95554.28
2022-11-15T02:01:53.402Z,95550.75
2022-11-15T02:04:44.698Z,95548.66
2022-11-15T02:07:32.155Z,95552.00
2022-11-15T02:10:23.860Z,95532.19
2022-11-15T02:13:09.706Z,95538.03
2022-11-15T02:16:20.611Z,95536.19
2022-11-15T02:19:15.337Z,95521.63
2022-11-15T02:22:23.066Z,95532.66
2022-11-15T02:25:27.172Z,95519.22
2022-11-15T02:28:27.767Z,95520.47
2022-11-15T02:31:29.656Z,95504.09
2022-11-15T02:34:50.423Z,95507.06
2022-11-15T02:38:26.812Z,95506.94
2022-11-15T02:41:18.340Z,95506.91
2022-11-15T02:44:21.462Z,95507.91
2022-11-15T02:47:14.633Z,95502.72
2022-11-15T02:50:09.344Z,95512.16
2022-11-15T02:52:55.543Z,95508.91
2022-11-15T02:55:51.372Z,95492.19
2022-11-15T02:59:14.994Z,95491.03
2022-11-15T03:02:09.961Z,95499.16
2022-11-15T03:05:17.043Z,95512.94
2022-11-15T03:08:18.275Z,95506.91
2022-11-15T03:11:13.213Z,95498.81
2022-11-15T03:14:00.241Z,95493.16
2022-11-15T03:17:21.110Z,95489.25
2022-11-15T03:20:09.134Z,95496.63
2022-11-15T03:22:58.205Z,95511.59
2022-11-15T03:25:49.779Z,95507.59
2022-11-15T03:28:39.741Z,95518.75
2022-11-15T03:31:50.372Z,95529.53
2022-11-15T03:34:50.539Z,95535.16
2022-11-15T03:37:43.575Z,95548.53
2022-11-15T03:40:42.008Z,95554.47
2022-11-15T03:43:33.905Z,95555.22
2022-11-15T03:46:40.618Z,95557.88
2022-11-15T03:49:35.192Z,95567.22
2022-11-15T03:52:23.053Z,95578.69
2022-11-15T03:55:11.674Z,95586.94
2022-11-15T03:58:03.452Z,95603.94
2022-11-15T04:00:49.278Z,95600.97
2022-11-15T04:03:34.875Z,95605.41
2022-11-15T04:06:20.467Z,95614.75
2022-11-15T04:09:06.078Z,95615.31
2022-11-15T04:11:51.768Z,95611.22
2022-11-15T04:14:37.145Z,95606.84
2022-11-15T04:17:22.628Z,95604.97
2022-11-15T04:20:36.713Z,95594.84
2022-11-15T04:23:42.984Z,95601.56
2022-11-15T04:26:29.206Z,95599.03
2022-11-15T04:29:33.740Z,95600.78
2022-11-15T04:32:19.719Z,95599.06
2022-11-15T04:35:05.887Z,95611.44
2022-11-15T04:37:51.907Z,95616.50
2022-11-15T04:40:38.632Z,95632.41
2022-11-15T04:43:24.602Z,95623.72
2022-11-15T04:46:10.331Z,95620.66
2022-11-15T04:48:58.901Z,95637.53
2022-11-15T04:51:45.592Z,95623.63
2022-11-15T04:54:31.448Z,95633.22
2022-11-15T04:57:17.677Z,95636.69
2022-11-15T05:00:08.409Z,95624.59
2022-11-15T05:03:12.979Z,95634.44
2022-11-15T05:06:00.102Z,95631.03
2022-11-15T05:08:45.781Z,95625.56
2022-11-15T05:11:32.059Z,95621.63
2022-11-15T05:14:17.827Z,95629.63
2022-11-15T05:17:03.559Z,95619.03
2022-11-15T05:19:49.398Z,95607.88
2022-11-15T05:22:35.061Z,95620.84
2022-11-15T05:25:21.029Z,95620.78
2022-11-15T05:28:06.912Z,95615.72
2022-11-15T05:30:52.930Z,95617.09
2022-11-15T05:33:40.751Z,95606.13
2022-11-15T05:36:46.943Z,95620.25
2022-11-15T05:39:32.456Z,95612.22
2022-11-15T05:42:19.094Z,95602.53
2022-11-15T05:45:09.831Z,95598.16
2022-11-15T05:47:58.093Z,95599.78
2022-11-15T05:50:48.251Z,95593.03
2022-11-15T05:53:34.633Z,95597.53
2022-11-15T05:56:20.636Z,95603.47
2022-11-15T05:59:08.516Z,95607.25
2022-11-15T06:01:53.932Z,95588.16
2022-11-15T06:04:39.452Z,95593.91
2022-11-15T06:07:25.092Z,95601.09
2022-11-15T06:10:10.552Z,95577.34
2022-11-15T06:13:00.399Z,95585.50
2022-11-15T06:15:46.164Z,95604.75
2022-11-15T06:18:34.876Z,95590.97
2022-11-15T06:21:20.979Z,95593.97
2022-11-15T06:24:07.271Z,95582.06
2022-11-15T06:26:52.885Z,95591.72
2022-11-15T06:29:38.657Z,95591.16
2022-11-15T06:32:24.092Z,95586.91
2022-11-15T06:35:09.701Z,95600.63
2022-11-15T06:37:55.096Z,95604.56
2022-11-15T06:40:40.908Z,95599.56
2022-11-15T06:43:26.841Z,95596.28
2022-11-15T06:46:12.345Z,95599.91
2022-11-15T06:48:58.594Z,95597.28
2022-11-15T06:51:44.340Z,95609.94
2022-11-15T06:54:29.997Z,95620.94
2022-11-15T06:57:15.817Z,95634.66
2022-11-15T07:00:01.292Z,95698.59
2022-11-15T07:02:47.630Z,95661.91
2022-11-15T07:05:34.031Z,95661.38
2022-11-15T07:08:20.266Z,95666.25
2022-11-15T07:11:09.321Z,95664.41
2022-11-15T07:13:55.140Z,95654.34
2022-11-15T07:16:40.922Z,95653.59
2022-11-15T07:19:29.548Z,95652.84
2022-11-15T07:22:14.967Z,95653.34
2022-11-15T07:25:00.365Z,95657.88
2022-11-15T07:27:56.462Z,95671.72
2022-11-15T07:30:45.238Z,95667.09
2022-11-15T07:33:31.169Z,95662.38
2022-11-15T07:36:17.012Z,95662.44
2022-11-15T07:39:02.868Z,95675.81
2022-11-15T07:41:49.346Z,95662.44
2022-11-15T07:44:35.220Z,95672.03
2022-11-15T07:47:21.601Z,95683.13
2022-11-15T07:50:07.595Z,95697.81
2022-11-15T07:52:57.843Z,95692.59
2022-11-15T07:55:43.519Z,95689.56
2022-11-15T07:58:29.151Z,95690.69
2022-11-15T08:01:14.947Z,95696.25
2022-11-15T08:04:00.854Z,95715.22
2022-11-15T08:06:47.221Z,95684.53
2022-11-15T08:09:32.911Z,95688.19
2022-11-15T08:12:18.411Z,95682.94
2022-11-15T08:15:04.595Z,95681.09
2022-11-15T08:17:55.461Z,95679.66
2022-11-15T08:20:42.127Z,95687.84
2022-11-15T08:23:28.896Z,95681.25
2022-11-15T08:26:14.600Z,95682.44
2022-11-15T08:29:00.070Z,95677.63
2022-11-15T08:31:45.633Z,95683.66
2022-11-15T08:34:30.989Z,95683.72
2022-11-15T08:37:16.481Z,95696.78
2022-11-15T08:40:02.400Z,95702.41
2022-11-15T08:42:48.801Z,95686.09
2022-11-15T08:45:36.642Z,95696.09
2022-11-15T08:48:22.369Z,95686.09
2022-11-15T08:51:08.196Z,95684.31
2022-11-15T08:53:53.921Z,95674.69
2022-11-15T08:56:39.495Z,95681.06
2022-11-15T08:59:25.473Z,95688.50
2022-11-15T09:02:15.207Z,95680.72
2022-11-15T09:05:01.415Z,95687.34
2022-11-15T09:07:46.967Z,95679.13
2022-11-15T09:10:32.734Z,95674.34
2022-11-15T09:13:18.473Z,95664.31
2022-11-15T09:16:04.874Z,95669.09
2022-11-15T09:18:50.635Z,95666.13
2022-11-15T09:21:36.296Z,95658.75
2022-11-15T09:24:22.247Z,95664.69
2022-11-15T09:27:07.681Z,95665.44
2022-11-15T09:29:53.443Z,95671.75
2022-11-15T09:32:39.674Z,95667.34
2022-11-15T09:35:25.693Z,95675.16
2022-11-15T09:38:11.391Z,95678.59
2022-11-15T09:41:23.240Z,95669.06
2022-11-15T09:44:27.583Z,95674.69
2022-11-15T09:47:50.865Z,95672.81
2022-11-15T09:50:42.658Z,95669.75
2022-11-15T09:53:15.674Z,95670.97
2022-11-15T09:56:01.437Z,95659.16
2022-11-15T09:58:41.060Z,95681.84
2022-11-15T10:01:26.552Z,95705.66
2022-11-15T10:03:59.231Z,95728.09
2022-11-15T10:06:27.892Z,95725.19
2022-11-15T10:09:19.995Z,95738.97
2022-11-15T10:11:49.683Z,95730.53
2022-11-15T10:14:23.053Z,95726.09
2022-11-15T10:17:03.671Z,95731.03
2022-11-15T10:20:05.613Z,95754.78
2022-11-15T10:22:51.789Z,95738.22
2022-11-15T10:25:22.516Z,95752.41
2022-11-15T10:28:02.328Z,95761.31
2022-11-15T10:30:36.016Z,95769.81
2022-11-15T10:33:39.743Z,95761.66
2022-11-15T10:36:10.865Z,95786.19
2022-11-15T10:39:12.660Z,95783.09
2022-11-15T10:41:42.067Z,95786.84
2022-11-15T10:44:09.113Z,95793.28
2022-11-15T10:46:47.618Z,95787.03
2022-11-15T10:49:31.399Z,95778.97
2022-11-15T10:52:00.565Z,95822.84
2022-11-15T10:54:58.106Z,95801.25
2022-11-15T10:57:28.899Z,95756.34
2022-11-15T10:59:58.709Z,95796.31
2022-11-15T11:02:30.766Z,95784.94
2022-11-15T11:04:58.658Z,95798.66
2022-11-15T11:07:36.979Z,95814.34
2022-11-15T11:10:50.828Z,95815.94
2022-11-15T11:13:17.024Z,95844.47
2022-11-15T11:15:48.431Z,95831.81
2022-11-15T11:18:40.108Z,95828.66
2022-11-15T11:21:31.071Z,95859.91
2022-11-15T11:24:06.564Z,95837.78
2022-11-15T11:26:41.826Z,95898.53
2022-11-15T11:29:26.264Z,95912.50
2022-11-15T11:32:09.524Z,95915.00
2022-11-15T11:35:12.953Z,95944.69
2022-11-15T11:37:51.647Z,95992.91
2022-11-15T11:40:36.417Z,95972.94
2022-11-15T11:43:19.447Z,95949.69
2022-11-15T11:46:17.127Z,96015.16
2022-11-15T11:48:47.649Z,95994.41
2022-11-15T11:51:54.443Z,96047.56
2022-11-15T11:54:29.325Z,96020.78
2022-11-15T11:56:59.542Z,96019.66
2022-11-15T11:59:42.705Z,96074.03
2022-11-15T12:02:16.921Z,96034.25
2022-11-15T12:04:50.759Z,96018.75
2022-11-15T12:07:25.659Z,95986.00
2022-11-15T12:10:20.227Z,96072.13
2022-11-15T12:12:53.479Z,96057.47
2022-11-15T12:15:27.513Z,96029.06
2022-11-15T12:17:57.321Z,95997.81
2022-11-15T12:20:28.128Z,96003.34
2022-11-15T12:23:15.227Z,96043.03
2022-11-15T12:25:51.731Z,95993.53
2022-11-15T12:28:58.646Z,95977.09
2022-11-15T12:31:36.591Z,95984.94
2022-11-15T12:34:31.021Z,95963.63
2022-11-15T12:36:57.950Z,95968.81
2022-11-15T12:40:14.122Z,95959.47
2022-11-15T12:42:44.293Z,95960.56
2022-11-15T12:45:29.522Z,95955.69
2022-11-15T12:48:33.510Z,95945.94
2022-11-15T12:51:01.330Z,95956.44
2022-11-15T12:53:33.556Z,95936.66
2022-11-15T12:56:19.070Z,95949.38
2022-11-15T12:58:49.472Z,95959.75
2022-11-15T13:01:32.141Z,95977.28
2022-11-15T13:04:21.281Z,95961.66
2022-11-15T13:06:57.281Z,96002.22
2022-11-15T13:09:45.940Z,95970.56
2022-11-15T13:12:28.331Z,95954.16
2022-11-15T13:15:14.490Z,95966.00
2022-11-15T13:17:56.036Z,95954.41
2022-11-15T13:20:31.689Z,95960.78
2022-11-15T13:23:17.680Z,95991.69
2022-11-15T13:26:06.299Z,95982.13
2022-11-15T13:28:54.514Z,95965.44
2022-11-15T13:31:43.013Z,95967.25
2022-11-15T13:34:51.476Z,95988.41
2022-11-15T13:37:26.067Z,95962.72
2022-11-15T13:40:02.534Z,95913.91
2022-11-15T13:42:45.736Z,95954.19
2022-11-15T13:45:28.816Z,95959.34
2022-11-15T13:48:07.495Z,95918.19
2022-11-15T13:50:41.766Z,95912.50
2022-11-15T13:53:22.694Z,95893.47
2022-11-15T13:56:08.016Z,95861.75
2022-11-15T13:59:01.344Z,95854.63
2022-11-15T14:01:36.161Z,95857.53
2022-11-15T14:04:19.861Z,95845.91
2022-11-15T14:06:52.799Z,95839.94
2022-11-15T14:09:46.280Z,95838.03
2022-11-15T14:12:40.267Z,95826.84
2022-11-15T14:15:34.994Z,95825.69
2022-11-15T14:18:50.859Z,95801.06
2022-11-15T14:21:24.105Z,95782.78
2022-11-15T14:24:17.613Z,95793.97
2022-11-15T14:30:31.194Z,95659.34
2022-11-15T14:33:04.692Z,95605.31
2022-11-15T14:35:54.153Z,95562.06
2022-11-15T14:38:29.931Z,95533.41
2022-11-15T14:41:12.183Z,95520.78
2022-11-15T14:43:48.661Z,95508.81
2022-11-15T14:46:22.934Z,95488.72
2022-11-15T14:48:52.677Z,95471.59
2022-11-15T14:51:25.056Z,95456.28
2022-11-15T14:53:59.834Z,95435.06
2022-11-15T14:56:36.885Z,95430.91
2022-11-15T14:59:13.083Z,95404.13
2022-11-15T15:01:52.526Z,95398.59
2022-11-15T15:04:46.850Z,95389.97
2022-11-15T15:07:35.562Z,95379.94
2022-11-15T15:10:41.074Z,95370.59
2022-11-15T15:13:31.708Z,95362.41
2022-11-15T15:16:23.864Z,95342.69
2022-11-15T15:18:59.157Z,95336.34
2022-11-15T15:21:56.950Z,95329.25
2022-11-15T15:24:30.745Z,95321.06
2022-11-15T15:27:44.232Z,95314.34
2022-11-15T15:30:24.124Z,95294.25
2022-11-15T15:32:53.917Z,95280.47
2022-11-15T15:35:36.845Z,95263.72
2022-11-15T15:38:10.141Z,95248.13
2022-11-15T15:40:51.520Z,95226.53
2022-11-15T15:43:25.720Z,95220.19
2022-11-15T15:46:33.368Z,95214.22
2022-11-15T15:49:14.318Z,95204.19
2022-11-15T15:51:47.299Z,95200.47
2022-11-15T15:54:16.203Z,95189.66
2022-11-15T15:56:55.914Z,95178.13
2022-11-15T15:59:32.565Z,95167.31
2022-11-15T16:02:12.762Z,95154.34
2022-11-15T16:04:45.100Z,95144.66
2022-11-15T16:07:42.236Z,95135.72
2022-11-15T16:10:32.109Z,95129.44
2022-11-15T16:13:08.706Z,95130.53
2022-11-15T16:15:41.201Z,95122.31
2022-11-15T16:18:21.215Z,95123.09
2022-11-15T16:21:08.500Z,95121.59
2022-11-15T16:23:47.271Z,95113.78
2022-11-15T16:26:30.301Z,95106.31
2022-11-15T16:29:08.310Z,95084.78
2022-11-15T16:31:48.625Z,95093.34
2022-11-15T16:34:31.672Z,95083.28
2022-11-15T16:37:31.589Z,95076.97
2022-11-15T16:40:21.704Z,95069.91
2022-11-15T16:42:57.566Z,95075.09
2022-11-15T16:45:40.508Z,95073.97
2022-11-15T16:48:43.254Z,95057.28
2022-11-15T16:51:22.933Z,95057.28
2022-11-15T16:54:18.079Z,95059.88
2022-11-15T16:56:55.358Z,95039.81
2022-11-15T16:59:33.232Z,95048.34
2022-11-15T17:02:19.251Z,95043.16
2022-11-15T17:04:54.813Z,95044.28
2022-11-15T17:07:27.911Z,95052.06
2022-11-15T17:10:07.125Z,95044.28
2022-11-15T17:12:36.667Z,95048.34
2022-11-15T17:15:05.387Z,95043.56
2022-11-15T17:17:32.675Z,95040.19
2022-11-15T17:19:59.853Z,95055.06
2022-11-15T17:22:26.903Z,95038.34
2022-11-15T17:24:53.801Z,95043.19
2022-11-15T17:27:22.011Z,95043.94
2022-11-15T17:29:49.055Z,95047.25
2022-11-15T17:32:16.079Z,95046.16
2022-11-15T17:34:43.098Z,95033.53
2022-11-15T17:37:10.132Z,95039.47
2022-11-15T17:39:37.269Z,95036.47
2022-11-15T17:42:04.587Z,95035.00
2022-11-15T17:44:32.729Z,95037.63
2022-11-15T17:46:59.623Z,95046.16
2022-11-15T17:49:26.763Z,95046.50
2022-11-15T17:51:54.220Z,95043.16
2022-11-15T17:54:21.752Z,95038.00
2022-11-15T17:56:49.171Z,95054.72
2022-11-15T17:59:21.167Z,95050.97
2022-11-15T18:01:48.827Z,95062.09
2022-11-15T18:04:16.189Z,95057.25
2022-11-15T18:06:43.448Z,95054.66
2022-11-15T18:09:10.409Z,95049.44
2022-11-15T18:11:40.365Z,95060.22
2022-11-15T18:14:10.917Z,95037.56
2022-11-15T18:16:38.290Z,95042.78
2022-11-15T18:19:14.921Z,95049.09
2022-11-15T18:21:56.505Z,95063.63
2022-11-15T18:24:35.166Z,95066.56
2022-11-15T18:27:04.128Z,95064.31
2022-11-15T18:29:32.888Z,95062.84
2022-11-15T18:32:00.245Z,95068.06
2022-11-15T18:34:33.869Z,95081.84
2022-11-15T18:37:02.992Z,95082.56
2022-11-15T18:39:30.936Z,95085.94
2022-11-15T18:42:00.442Z,95091.88
2022-11-15T18:44:30.416Z,95103.38
2022-11-15T18:46:57.895Z,95106.69
2022-11-15T18:49:25.186Z,95106.31
2022-11-15T18:51:52.268Z,95144.66
2022-11-15T18:54:19.352Z,95108.19
2022-11-15T18:56:47.245Z,95110.84
2022-11-15T18:59:15.418Z,95119.03
2022-11-15T19:01:48.501Z,95134.34
2022-11-15T19:04:20.080Z,95137.59
2022-11-15T19:06:48.998Z,95120.09
2022-11-15T19:09:18.086Z,95114.53
2022-11-15T19:11:47.072Z,95112.69
2022-11-15T19:14:16.587Z,95120.16
2022-11-15T19:16:46.221Z,95123.84
2022-11-15T19:19:18.511Z,95133.19
2022-11-15T19:21:45.965Z,95132.41
2022-11-15T19:24:13.089Z,95138.03
2022-11-15T19:26:40.419Z,95157.41
2022-11-15T19:29:10.528Z,95170.78
2022-11-15T19:31:38.564Z,95168.91
2022-11-15T19:34:07.073Z,95177.44
2022-11-15T19:36:40.098Z,95162.53
2022-11-15T19:39:10.308Z,95159.19
2022-11-15T19:41:39.348Z,95149.53
2022-11-15T19:44:07.141Z,95142.09
2022-11-15T19:46:35.064Z,95134.63
2022-11-15T19:49:02.334Z,95108.56
2022-11-15T19:51:31.187Z,95099.28
2022-11-15T19:54:03.780Z,95078.44
2022-11-15T19:56:30.920Z,95064.72
2022-11-15T19:58:58.080Z,95053.56
2022-11-15T20:01:27.905Z,95053.94
2022-11-15T20:03:58.008Z,95047.63
2022-11-15T20:06:37.107Z,95044.66
2022-11-15T20:09:04.646Z,95019.00
2022-11-15T20:11:31.955Z,95001.56
2022-11-15T20:14:00.570Z,94997.06
2022-11-15T20:16:28.216Z,94989.28
2022-11-15T20:18:55.340Z,94984.06
2022-11-15T20:21:22.479Z,94967.00
2022-11-15T20:23:51.186Z,94953.59
2022-11-15T20:26:19.527Z,94954.31
2022-11-15T20:28:48.321Z,94932.41
2022-11-15T20:31:16.233Z,94926.47
2022-11-15T20:33:43.181Z,94901.59
2022-11-15T20:36:16.126Z,94896.75
2022-11-15T20:38:44.773Z,94889.00
2022-11-15T20:41:12.907Z,94875.59
2022-11-15T20:43:43.742Z,94876.72
2022-11-15T20:46:12.605Z,94874.84
2022-11-15T20:48:40.452Z,94869.66
2022-11-15T20:51:19.707Z,94860.41
2022-11-15T20:53:47.402Z,94858.16
2022-11-15T20:56:18.023Z,94860.38
2022-11-15T20:58:46.022Z,94854.09
2022-11-15T21:01:15.382Z,94849.59
2022-11-15T21:03:43.003Z,94851.09
2022-11-15T21:06:10.813Z,94852.59
2022-11-15T21:08:56.407Z,94839.97
2022-11-15T21:11:43.500Z,94822.91
2022-11-15T21:14:10.842Z,94826.59
2022-11-15T21:16:39.054Z,94828.06
2022-11-15T21:19:06.755Z,94821.41
2022-11-15T21:21:35.426Z,94816.94
2022-11-15T21:24:08.296Z,94821.00
2022-11-15T21:26:36.085Z,94830.69
2022-11-15T21:29:03.675Z,94833.28
2022-11-15T21:31:32.158Z,94818.44
2022-11-15T21:34:02.688Z,94809.53
2022-11-15T21:36:30.458Z,94804.34
2022-11-15T21:38:57.355Z,94800.22
2022-11-15T21:41:24.563Z,94802.13
2022-11-15T21:43:51.545Z,94784.63
2022-11-15T21:46:18.628Z,94783.88
2022-11-15T21:48:45.995Z,94779.44
2022-11-15T21:51:13.139Z,94770.91
2022-11-15T21:53:40.353Z,94749.38
2022-11-15T21:56:08.097Z,94755.34
2022-11-15T21:58:35.877Z,94761.25
2022-11-15T22:01:21.560Z,94747.50
2022-11-15T22:03:48.742Z,94749.75
2022-11-15T22:06:18.667Z,94741.56
2022-11-15T22:08:46.753Z,94737.16
2022-11-15T22:11:14.631Z,94735.66
2022-11-15T22:13:42.056Z,94728.22
2022-11-15T22:16:09.612Z,94705.59
2022-11-15T22:18:37.504Z,94713.38
2022-11-15T22:21:12.136Z,94697.78
2022-11-15T22:23:39.627Z,94693.31
2022-11-15T22:26:07.802Z,94691.09
2022-11-15T22:28:35.462Z,94692.22
2022-11-15T22:31:03.193Z,94695.94
2022-11-15T22:33:32.142Z,94684.81
2022-11-15T22:35:59.967Z,94678.50
2022-11-15T22:38:28.268Z,94662.91
2022-11-15T22:40:55.699Z,94657.72
2022-11-15T22:43:24.508Z,94672.56
2022-11-15T22:45:51.498Z,94656.63
2022-11-15T22:48:23.866Z,94670.34
2022-11-15T22:50:51.126Z,94656.63
2022-11-15T22:53:19.086Z,94648.44
2022-11-15T22:56:03.633Z,94676.66
2022-11-15T22:58:32.536Z,94691.50
2022-11-15T23:01:02.666Z,94747.53
2022-11-15T23:03:31.155Z,94652.91
2022-11-15T23:06:05.938Z,94653.66
2022-11-15T23:08:33.351Z,94631.78
2022-11-15T23:11:20.781Z,94631.78
2022-11-15T23:13:53.107Z,94605.41
2022-11-15T23:16:23.992Z,94609.50
2022-11-15T23:18:58.182Z,94637.69
2022-11-15T23:21:46.188Z,94658.06
2022-11-15T23:24:14.557Z,94626.91
2022-11-15T23:26:42.351Z,94615.03
2022-11-15T23:29:11.438Z,94618.03
2022-11-15T23:32:01.978Z,94618.38
2022-11-15T23:34:31.059Z,94659.94
2022-11-15T23:36:59.084Z,94680.00
2022-11-15T23:39:26.633Z,94639.91
2022-11-15T23:41:53.699Z,94646.97
2022-11-15T23:44:20.709Z,94635.84
2022-11-15T23:46:47.773Z,94644.38
2022-11-15T23:49:14.731Z,94617.31
2022-11-15T23:51:41.832Z,94646.97
2022-11-15T23:54:08.937Z,94634.00
2022-11-15T23:56:36.082Z,94607.25
2022-11-15T23:59:03.571Z,94616.19
